Spring City, TN (37381)

6:13 PM EDT on September 02, 2015 (GMT -0400)
Spring City, Wolf Creek on Watts Bar Lake | | Change Station
CLOSE
Current Station
Personal Weather Station
Location: Spring City, TN
Elevation: 787 ft
Nearby Weather Stations

Elev 787 ft 35.66 °N, 84.85 °W | Updated 11 minutes ago

Partly Cloudy
Partly Cloudy
88.2 °F
Feels Like 97 °F
N
0.0
Wind Variable Wind from West

Today
High -- | Low -- °F
--% Chance of Precip.
Yesterday
High -- | Low -- °F
Precip. -- in
7:12 AM 8:05 PM
Waning Gibbous, 77% visible
Pressure 30.03 in
Visibility 10.0 miles
Clouds Few 4800 ft
Mostly Cloudy 6000 ft
Heat Index 97 °F
Dew Point 74 °F
Humidity 62%
Rainfall 0.00 in
Snow Depth Not available.
UV 1 out of 12
Pollen 9.60 out of 12
Air Quality Not available.
Flu Activity Not available.
METAR KCSV 022153Z AUTO 02006KT 10SM FEW048 BKN060 28/18 A3010 RMK AO2 SLP169 T02830183
Pressure 30.03 in
Visibility 10.0 miles
Clouds Few 4800 ft
Mostly Cloudy 6000 ft
Heat Index 97 °F
Dew Point 74 °F
Humidity 62%
Rainfall 0.00 in
Snow Depth Not available.
UV 1 out of 12
Pollen 9.60 out of 12
Air Quality Not available.
Flu Activity Not available.
METAR KCSV 022153Z AUTO 02006KT 10SM FEW048 BKN060 28/18 A3010 RMK AO2 SLP169 T02830183

10-Day Weather Forecast

×

Almanac

Astronomy

Sep. 02, 2015 Rise Set
Actual Time
Civil Twilight
Nautical Twilight
Astronomical Twilight
Moon
Length of Visible Light
Length of Day
Tomorrow will be .
, % of the Moon is Illuminated

Today's Extremes

State Highs State Lows

Community

WunderPhotos

Upload Photos

1,851,823 photos uploaded!

WunderBlogs® & News

Nearby

Air Quality

  Air Quality AQ Index Pollutant
Not available.

Snow Depth

Station Depth Elevation

Earthquake Activity

City Distance Mag. Time & Date
Minimum magnitude displayed is 2.5.

Coastal Water Temperatures

Place Temperature

Stations

Nearby Weather Stations

Station Location Temp. Windchill Dew Point Humidity Wind Precip. Elev Updated Type